Terminal Aerodrome Forecast
Issued by NWS

Home | Current Version | Previous Version | Text Only | Print | Product List | Glossary On
Versions: 1 2 3 4 5 6 7 8 9 10 11 12 13 14
000
FTUS45 KTFX 212300
TAFHVR
TAF
KHVR 212320Z 2200/2224 27014G20KT P6SM VCSH SCT040 OVC080
     FM220500 26015KT P6SM BKN080
     FM221800 29014G21KT P6SM SCT040 BKN070=

USA.gov is the U.S. government's official web portal to all federal, state and local government web resources and services.